Middleville, NY

2:33 AM EDT on May 05, 2015 (GMT -0400)
Village of Middleville | | Change Station
CLOSE
Current Station
Personal Weather Station
Location: Newport, NY
Elevation: 623 ft
Nearby Weather Stations

Elev 623 ft 43.15 °N, 74.97 °W | Updated 1 minute ago

Partly Cloudy
Partly Cloudy
60.4 °F
Feels Like 60.4 °F
N
2.0
Wind Variable Wind from North
Gusts 6.0 mph

Today
High -- | Low -- °F
--% Chance of Precip.
Yesterday
High -- | Low -- °F
Precip. -- in
5:48 AM 8:05 PM
Full, 99% visible
Pressure 30.18 in
Visibility 10.0 miles
Clouds Few 3400 ft
Dew Point 53 °F
Humidity 77%
Rainfall 0.00 in
Snow Depth Not available.
UV 0 out of 12
Pollen 11.10 out of 12
Air Quality Not available.
Flu Activity Widespread
METAR KRME 050553Z AUTO 28005KT 10SM FEW034 14/12 A3019 RMK AO2 SLP218 60000 T01440117 10217 20144 53016

More Conditions Fewer Conditions

Pressure 30.18 in
Visibility 10.0 miles
Clouds Few 3400 ft
Dew Point 53 °F
Humidity 77%
Rainfall 0.00 in
Snow Depth Not available.
UV 0 out of 12
Pollen 11.10 out of 12
Air Quality Not available.
Flu Activity Widespread
METAR KRME 050553Z AUTO 28005KT 10SM FEW034 14/12 A3019 RMK AO2 SLP218 60000 T01440117 10217 20144 53016

More Conditions Fewer Conditions

Nepal has a long way to go to dig out and rebuild from a devastating earthquake. We have teamed up with several charities and organizations to make contributing to the relief effort as easy as possible.
How you can help: Portlight Strategies | Red Cross

10-Day Weather Forecast

Almanac

Astronomy

May. 05, 2015 Rise Set
Actual Time
Civil Twilight
Nautical Twilight
Astronomical Twilight
Moon
Length of Visible Light
Length of Day
Tomorrow will be .
, % of the Moon is Illuminated

Today's Extremes

State Highs State Lows

Community

WunderPhotos

Upload Photos

1,818,814 photos uploaded!

WunderBlogs® & News

Nearby

Air Quality

  Air Quality AQ Index Pollutant
Not available.

Snow Depth

Station Depth Elevation

Earthquake Activity

City Distance Mag. Time & Date
Minimum magnitude displayed is 2.5.

Coastal Water Temperatures

Place Temperature

Stations

Nearby Weather Stations

Station Location Temp. Windchill Dew Point Humidity Wind Precip. Elev Updated Type